Terminal Aerodrome Forecast
Issued by NWS

Home | Current Version | Previous Version | Text Only | Print | Product List | Glossary On
Versions: 1 2 3 4 5 6 7 8 9 10 11 12 13 14 15
817
FTUS42 KMLB 101730
TAFLEE
TAF
KLEE 101730Z 1018/1118 05011KT P6SM SCT035
     FM110100 05008KT P6SM SCT035
     FM110600 04004KT P6SM SCT035
     FM111400 09008KT P6SM BKN035=

USA.gov is the U.S. government's official web portal to all federal, state and local government web resources and services.